createdAt,value
2023-06-29T00:01:04.723Z,55.66
2023-06-29T00:03:33.307Z,55.17
2023-06-29T00:06:01.282Z,55.76
2023-06-29T00:08:30.050Z,58.63
2023-06-29T00:10:59.118Z,54.90
2023-06-29T00:13:26.758Z,55.32
2023-06-29T00:15:54.424Z,55.94
2023-06-29T00:18:22.100Z,55.62
2023-06-29T00:20:52.517Z,57.71
2023-06-29T00:23:20.426Z,56.12
2023-06-29T00:25:48.318Z,57.40
2023-06-29T00:28:17.703Z,57.61
2023-06-29T00:30:45.378Z,58.07
2023-06-29T00:33:14.197Z,57.97
2023-06-29T00:35:42.151Z,56.04
2023-06-29T00:38:09.958Z,55.80
2023-06-29T00:40:37.621Z,55.90
2023-06-29T00:43:05.264Z,57.56
2023-06-29T00:45:34.742Z,58.11
2023-06-29T00:48:02.710Z,57.30
2023-06-29T00:50:31.047Z,56.23
2023-06-29T00:52:59.286Z,57.19
2023-06-29T00:55:27.152Z,56.40
2023-06-29T00:57:54.886Z,56.18
2023-06-29T01:00:22.562Z,55.83
2023-06-29T01:02:52.538Z,54.73
2023-06-29T01:09:06.886Z,56.93
2023-06-29T01:11:35.074Z,57.15
2023-06-29T01:14:05.509Z,55.58
2023-06-29T01:16:34.446Z,54.59
2023-06-29T01:19:06.477Z,56.30
2023-06-29T01:21:38.743Z,56.16
2023-06-29T01:24:07.667Z,52.90
2023-06-29T01:26:39.749Z,54.38
2023-06-29T01:29:07.402Z,56.99
2023-06-29T01:31:35.086Z,57.19
2023-06-29T01:34:02.950Z,55.82
2023-06-29T01:36:33.978Z,54.47
2023-06-29T01:39:04.873Z,54.87
2023-06-29T01:41:34.700Z,55.56
2023-06-29T01:44:05.233Z,54.47
2023-06-29T01:46:33.661Z,56.44
2023-06-29T01:49:01.690Z,55.55
2023-06-29T01:51:29.598Z,53.38
2023-06-29T01:53:57.307Z,57.30
2023-06-29T01:56:24.954Z,57.05
2023-06-29T01:58:52.581Z,58.89
2023-06-29T02:01:21.665Z,57.34
2023-06-29T02:03:49.931Z,58.30
2023-06-29T02:06:17.662Z,58.71
2023-06-29T02:08:45.985Z,57.14
2023-06-29T02:11:13.974Z,56.70
2023-06-29T02:13:41.716Z,57.87
2023-06-29T02:16:09.425Z,55.33
2023-06-29T02:18:38.485Z,58.87
2023-06-29T02:21:06.560Z,56.44
2023-06-29T02:23:34.194Z,55.51
2023-06-29T02:26:02.084Z,54.30
2023-06-29T02:28:29.991Z,54.13
2023-06-29T02:30:57.631Z,56.98
2023-06-29T02:33:25.322Z,57.67
2023-06-29T02:35:54.327Z,55.74
2023-06-29T02:38:21.985Z,56.54
2023-06-29T02:40:49.602Z,56.17
2023-06-29T02:43:17.286Z,55.61
2023-06-29T02:45:45.405Z,56.58
2023-06-29T02:48:13.921Z,55.26
2023-06-29T02:50:41.539Z,54.60
2023-06-29T02:53:12.280Z,52.88
2023-06-29T02:55:39.978Z,54.38
2023-06-29T02:58:07.607Z,57.41
2023-06-29T03:00:35.233Z,54.81
2023-06-29T03:03:03.213Z,58.62
2023-06-29T03:05:30.958Z,58.34
2023-06-29T03:07:58.635Z,54.14
2023-06-29T03:10:28.126Z,54.51
2023-06-29T03:12:56.256Z,56.01
2023-06-29T03:15:23.888Z,52.91
2023-06-29T03:17:51.611Z,54.71
2023-06-29T03:20:19.414Z,57.35
2023-06-29T03:22:47.083Z,54.64
2023-06-29T03:25:14.688Z,55.94
2023-06-29T03:27:44.012Z,56.25
2023-06-29T03:30:12.640Z,55.35
2023-06-29T03:32:40.254Z,56.80
2023-06-29T03:35:08.712Z,60.10
2023-06-29T03:37:36.382Z,55.29
2023-06-29T03:40:04.016Z,56.01
2023-06-29T03:42:32.032Z,55.67
2023-06-29T03:45:01.201Z,55.35
2023-06-29T03:47:28.953Z,53.51
2023-06-29T03:49:56.671Z,55.18
2023-06-29T03:52:24.343Z,55.13
2023-06-29T03:54:52.064Z,53.52
2023-06-29T03:57:19.743Z,55.05
2023-06-29T03:59:47.405Z,53.99
2023-06-29T04:02:16.679Z,53.66
2023-06-29T04:04:45.025Z,54.82
2023-06-29T04:07:12.695Z,55.21
2023-06-29T04:09:40.343Z,54.93
2023-06-29T04:12:08.813Z,56.70
2023-06-29T04:14:36.524Z,52.18
2023-06-29T04:17:04.324Z,55.21
2023-06-29T04:19:34.068Z,52.59
2023-06-29T04:22:01.922Z,55.33
2023-06-29T04:24:29.571Z,51.13
2023-06-29T04:26:57.401Z,54.84
2023-06-29T04:32:00.345Z,53.51
2023-06-29T04:34:28.039Z,52.79
2023-06-29T04:36:57.886Z,50.85
2023-06-29T04:39:25.672Z,54.53
2023-06-29T04:42:02.303Z,53.91
2023-06-29T04:44:33.910Z,52.30
2023-06-29T04:47:02.270Z,52.71
2023-06-29T04:49:32.972Z,48.72
2023-06-29T04:52:02.253Z,50.49
2023-06-29T04:54:30.207Z,48.54
2023-06-29T04:56:58.102Z,48.92
2023-06-29T04:59:27.080Z,47.63
2023-06-29T05:01:55.086Z,48.63
2023-06-29T05:04:23.247Z,47.99
2023-06-29T05:06:51.002Z,45.47
2023-06-29T05:09:20.658Z,45.59
2023-06-29T05:11:48.506Z,46.21
2023-06-29T05:14:16.449Z,47.66
2023-06-29T05:16:44.267Z,49.73
2023-06-29T05:19:12.060Z,47.62
2023-06-29T05:21:39.978Z,47.28
2023-06-29T05:24:08.429Z,48.66
2023-06-29T05:26:37.546Z,47.35
2023-06-29T05:29:06.351Z,44.97
2023-06-29T05:31:34.682Z,49.72
2023-06-29T05:34:02.629Z,49.96
2023-06-29T05:36:31.018Z,47.48
2023-06-29T05:38:59.056Z,47.61
2023-06-29T05:41:27.033Z,46.91
2023-06-29T05:43:56.153Z,49.55
2023-06-29T05:46:24.151Z,48.90
2023-06-29T05:48:51.929Z,49.97
2023-06-29T05:51:19.782Z,47.48
2023-06-29T05:53:47.694Z,47.44
2023-06-29T05:56:15.726Z,49.27
2023-06-29T05:58:43.614Z,46.30
2023-06-29T06:01:14.122Z,46.44
2023-06-29T06:03:42.435Z,47.33
2023-06-29T06:06:11.035Z,46.86
2023-06-29T06:08:39.016Z,46.13
2023-06-29T06:11:06.739Z,48.75
2023-06-29T06:13:34.513Z,47.81
2023-06-29T06:16:02.447Z,46.97
2023-06-29T06:18:31.539Z,46.68
2023-06-29T06:20:59.210Z,48.02
2023-06-29T06:23:26.983Z,47.86
2023-06-29T06:25:54.784Z,49.39
2023-06-29T06:28:22.670Z,48.11
2023-06-29T06:30:51.781Z,45.43
2023-06-29T06:33:21.263Z,46.94
2023-06-29T06:35:50.440Z,46.73
2023-06-29T06:38:18.631Z,45.99
2023-06-29T06:40:46.841Z,48.70
2023-06-29T06:43:16.383Z,46.71
2023-06-29T06:45:44.038Z,46.43
2023-06-29T06:48:12.251Z,46.69
2023-06-29T06:50:40.708Z,49.02
2023-06-29T06:53:09.920Z,46.27
2023-06-29T06:55:37.723Z,48.67
2023-06-29T06:58:05.480Z,46.66
2023-06-29T07:00:33.182Z,47.62
2023-06-29T07:03:01.156Z,49.17
2023-06-29T07:05:29.445Z,48.58
2023-06-29T07:07:57.141Z,47.14
2023-06-29T07:10:26.309Z,49.36
2023-06-29T07:12:54.069Z,48.25
2023-06-29T07:15:21.755Z,47.30
2023-06-29T07:17:58.767Z,46.89
2023-06-29T07:25:30.024Z,46.31
2023-06-29T07:27:58.233Z,48.00
2023-06-29T07:30:26.350Z,45.58
2023-06-29T07:32:54.293Z,45.26
2023-06-29T07:35:22.181Z,47.03
2023-06-29T07:37:49.878Z,47.55
2023-06-29T07:40:17.585Z,46.72
2023-06-29T07:42:46.831Z,44.37
2023-06-29T07:45:14.879Z,47.54
2023-06-29T07:47:42.949Z,45.00
2023-06-29T07:50:11.893Z,44.97
2023-06-29T07:52:39.671Z,47.94
2023-06-29T07:55:07.819Z,44.24
2023-06-29T08:00:15.838Z,44.90
2023-06-29T08:02:44.077Z,44.12
2023-06-29T08:07:43.593Z,43.05
2023-06-29T08:10:12.376Z,43.38
2023-06-29T08:12:40.413Z,44.45
2023-06-29T08:15:09.193Z,45.47
2023-06-29T08:17:44.455Z,42.92
2023-06-29T08:20:13.762Z,41.88
2023-06-29T08:22:44.177Z,40.44
2023-06-29T08:25:11.936Z,43.60
2023-06-29T08:27:40.801Z,43.26
2023-06-29T08:30:09.592Z,45.62
2023-06-29T08:32:37.349Z,42.64
2023-06-29T08:35:08.046Z,44.25
2023-06-29T08:37:35.983Z,42.92
2023-06-29T08:40:07.233Z,43.78
2023-06-29T08:42:35.058Z,45.23
2023-06-29T08:45:02.942Z,43.19
2023-06-29T08:47:33.171Z,43.82
2023-06-29T08:50:04.071Z,46.04
2023-06-29T08:52:35.346Z,43.51
2023-06-29T08:55:04.537Z,44.35
2023-06-29T08:57:33.490Z,44.33
2023-06-29T09:00:01.557Z,44.99
2023-06-29T09:02:30.097Z,47.85
2023-06-29T09:04:59.640Z,45.28
2023-06-29T09:07:27.718Z,47.47
2023-06-29T09:09:56.902Z,45.90
2023-06-29T09:12:25.177Z,45.88
2023-06-29T09:14:53.317Z,44.93
2023-06-29T09:17:23.252Z,45.44
2023-06-29T09:19:55.144Z,43.62
2023-06-29T09:22:23.608Z,43.47
2023-06-29T09:25:02.932Z,47.94
2023-06-29T09:27:38.685Z,46.56
2023-06-29T09:30:07.661Z,44.08
2023-06-29T09:32:38.657Z,46.99
2023-06-29T09:35:09.109Z,44.53
2023-06-29T09:37:37.840Z,46.23
2023-06-29T09:40:10.941Z,44.29
2023-06-29T09:42:42.083Z,45.09
2023-06-29T09:45:12.559Z,42.50
2023-06-29T09:50:19.947Z,45.45
2023-06-29T09:52:49.444Z,45.02
2023-06-29T09:55:41.568Z,43.54
2023-06-29T09:58:11.586Z,43.52
2023-06-29T10:00:40.582Z,44.90
2023-06-29T10:03:08.851Z,43.62
2023-06-29T10:05:37.080Z,45.56
2023-06-29T10:08:06.737Z,45.88
2023-06-29T10:10:35.810Z,46.72
2023-06-29T10:13:05.852Z,46.68
2023-06-29T10:15:37.400Z,50.53
2023-06-29T10:18:09.138Z,49.30
2023-06-29T10:20:37.762Z,46.88
2023-06-29T10:23:06.721Z,46.57
2023-06-29T10:25:36.408Z,48.92
2023-06-29T10:28:04.737Z,50.32
2023-06-29T10:30:47.753Z,47.04
2023-06-29T10:33:17.129Z,47.26
2023-06-29T10:35:53.641Z,46.60
2023-06-29T10:38:21.329Z,46.16
2023-06-29T10:40:49.674Z,46.01
2023-06-29T10:43:19.184Z,48.53
2023-06-29T10:45:48.309Z,45.29
2023-06-29T10:48:31.353Z,48.63
2023-06-29T10:51:08.212Z,48.60
2023-06-29T10:53:36.761Z,49.99
2023-06-29T10:56:04.862Z,49.08
2023-06-29T10:58:38.665Z,47.44
2023-06-29T11:01:21.608Z,46.80
2023-06-29T11:03:49.459Z,51.60
2023-06-29T11:09:13.064Z,50.17
2023-06-29T11:11:41.145Z,52.42
2023-06-29T11:14:15.524Z,54.38
2023-06-29T11:16:44.701Z,58.31
2023-06-29T11:19:13.708Z,50.64
2023-06-29T11:21:42.890Z,49.64
2023-06-29T11:24:10.957Z,51.35
2023-06-29T11:26:38.640Z,52.61
2023-06-29T11:29:08.523Z,57.64
2023-06-29T11:31:36.434Z,55.03
2023-06-29T11:34:07.565Z,52.61
2023-06-29T11:36:37.492Z,52.61
2023-06-29T11:39:08.709Z,52.37
2023-06-29T11:41:37.078Z,53.70
2023-06-29T11:44:05.218Z,55.23
2023-06-29T11:46:36.228Z,56.66
2023-06-29T11:49:05.470Z,54.77
2023-06-29T11:51:35.558Z,53.90
2023-06-29T11:54:03.516Z,47.51
2023-06-29T11:56:36.499Z,52.20
2023-06-29T11:59:08.763Z,52.92
2023-06-29T12:01:37.339Z,48.59
2023-06-29T12:04:06.281Z,49.82
2023-06-29T12:06:36.324Z,47.54
2023-06-29T12:09:12.382Z,47.18
2023-06-29T12:11:40.960Z,48.18
2023-06-29T12:14:10.797Z,47.75
2023-06-29T12:22:42.090Z,43.53
2023-06-29T12:25:12.015Z,45.75
2023-06-29T12:27:39.837Z,42.00
2023-06-29T12:30:08.695Z,43.37
2023-06-29T12:32:36.387Z,40.99
2023-06-29T12:35:04.628Z,39.49
2023-06-29T12:37:32.599Z,39.21
2023-06-29T12:40:01.682Z,40.95
2023-06-29T12:42:29.363Z,40.42
2023-06-29T12:44:57.322Z,40.28
2023-06-29T12:47:25.149Z,40.41
2023-06-29T12:49:53.154Z,40.10
2023-06-29T12:52:20.907Z,38.68
2023-06-29T12:54:53.275Z,40.76
2023-06-29T12:57:26.946Z,38.72
2023-06-29T12:59:55.319Z,44.03
2023-06-29T13:02:23.627Z,44.37
2023-06-29T13:04:51.516Z,43.50
2023-06-29T13:07:20.852Z,42.59
2023-06-29T13:09:49.921Z,43.90
2023-06-29T13:12:17.586Z,45.18
2023-06-29T13:14:47.859Z,43.64
2023-06-29T13:17:16.239Z,43.71
2023-06-29T13:19:46.416Z,46.24
2023-06-29T13:22:14.085Z,45.76
2023-06-29T13:24:41.978Z,46.20
2023-06-29T13:27:09.830Z,46.42
2023-06-29T13:29:37.706Z,45.84
2023-06-29T13:32:07.565Z,45.08
2023-06-29T13:34:35.541Z,44.58
2023-06-29T13:37:03.595Z,46.24
2023-06-29T13:39:31.488Z,47.65
2023-06-29T13:41:59.182Z,46.72
2023-06-29T13:44:27.404Z,48.46
2023-06-29T13:46:55.339Z,47.95
2023-06-29T13:49:24.403Z,45.98
2023-06-29T13:51:52.059Z,44.59
2023-06-29T13:54:19.837Z,48.18
2023-06-29T13:56:48.006Z,46.62
2023-06-29T13:59:15.736Z,47.86
2023-06-29T14:01:43.474Z,47.74
2023-06-29T14:04:12.800Z,46.30
2023-06-29T14:06:43.897Z,46.43
2023-06-29T14:09:13.133Z,48.74
2023-06-29T14:11:41.171Z,48.80
2023-06-29T14:14:09.493Z,47.57
2023-06-29T14:16:37.341Z,45.65
2023-06-29T14:19:05.267Z,47.35
2023-06-29T14:21:33.203Z,49.40
2023-06-29T14:24:02.269Z,49.31
2023-06-29T14:26:30.190Z,49.16
2023-06-29T14:28:58.254Z,45.65
2023-06-29T14:31:25.951Z,49.70
2023-06-29T14:33:53.820Z,47.61
2023-06-29T14:36:21.537Z,46.10
2023-06-29T14:38:50.505Z,45.95
2023-06-29T14:41:20.792Z,45.55
2023-06-29T14:43:48.799Z,45.21
2023-06-29T14:46:16.485Z,45.06
2023-06-29T14:48:45.559Z,42.32
2023-06-29T14:51:13.679Z,41.35
2023-06-29T14:53:41.652Z,42.43
2023-06-29T14:56:10.927Z,40.99
2023-06-29T14:58:40.409Z,42.09
2023-06-29T15:01:08.212Z,42.10
2023-06-29T15:03:37.140Z,43.67
2023-06-29T15:06:05.265Z,44.56
2023-06-29T15:08:33.228Z,43.14
2023-06-29T15:11:00.935Z,42.14
2023-06-29T15:13:28.807Z,43.52
2023-06-29T15:15:59.265Z,45.43
2023-06-29T15:18:27.069Z,44.27
2023-06-29T15:20:54.760Z,41.93
2023-06-29T15:23:22.454Z,41.71
2023-06-29T15:25:50.267Z,42.54
2023-06-29T15:28:18.278Z,40.35
2023-06-29T15:30:53.237Z,41.78
2023-06-29T15:33:22.861Z,44.60
2023-06-29T15:35:50.566Z,42.10
2023-06-29T15:38:20.818Z,45.93
2023-06-29T15:40:50.085Z,44.31
2023-06-29T15:46:15.566Z,46.75
2023-06-29T15:48:44.830Z,43.39
2023-06-29T15:51:12.788Z,42.54
2023-06-29T15:53:58.625Z,45.10
2023-06-29T15:56:26.383Z,45.22
2023-06-29T15:58:55.646Z,45.58
2023-06-29T16:01:23.528Z,44.90
2023-06-29T16:03:53.307Z,44.66
2023-06-29T16:06:27.166Z,44.53
2023-06-29T16:08:54.947Z,45.02
2023-06-29T16:14:08.035Z,44.59
2023-06-29T16:16:35.835Z,44.96
2023-06-29T16:19:05.046Z,44.16
2023-06-29T16:21:32.725Z,41.72
2023-06-29T16:24:00.436Z,47.18
2023-06-29T16:26:28.124Z,44.30
2023-06-29T16:28:55.844Z,44.00
2023-06-29T16:31:23.664Z,45.34
2023-06-29T16:33:51.451Z,43.63
2023-06-29T16:36:21.065Z,47.33
2023-06-29T16:38:48.729Z,46.25
2023-06-29T16:41:16.598Z,47.40
2023-06-29T16:43:44.257Z,48.08
2023-06-29T16:46:12.191Z,43.91
2023-06-29T16:48:39.962Z,45.54
2023-06-29T16:51:08.023Z,46.85
2023-06-29T16:53:37.291Z,49.37
2023-06-29T16:56:05.332Z,48.17
2023-06-29T16:58:33.008Z,45.37
2023-06-29T17:01:00.716Z,43.93
2023-06-29T17:03:28.921Z,47.50
2023-06-29T17:05:56.741Z,47.03
2023-06-29T17:08:24.987Z,46.85
2023-06-29T17:10:54.285Z,46.50
2023-06-29T17:13:22.007Z,49.39
2023-06-29T17:15:50.079Z,46.79
2023-06-29T17:18:17.959Z,48.77
2023-06-29T17:20:45.704Z,49.05
2023-06-29T17:23:13.486Z,47.07
2023-06-29T17:25:47.185Z,47.11
2023-06-29T17:28:16.714Z,47.86
2023-06-29T17:30:45.223Z,47.84
2023-06-29T17:33:14.336Z,46.69
2023-06-29T17:35:42.424Z,49.06
2023-06-29T17:38:10.876Z,48.68
2023-06-29T17:40:38.661Z,51.89
2023-06-29T17:43:06.737Z,53.19
2023-06-29T17:45:36.473Z,53.17
2023-06-29T17:48:04.427Z,54.15
2023-06-29T17:50:32.192Z,56.56
2023-06-29T17:52:59.837Z,54.65
2023-06-29T17:55:27.596Z,51.23
2023-06-29T17:57:55.324Z,52.20
2023-06-29T18:03:00.104Z,54.25
2023-06-29T18:05:28.090Z,54.25
2023-06-29T18:07:57.010Z,52.94
2023-06-29T18:10:24.885Z,53.00
2023-06-29T18:12:52.602Z,53.02
2023-06-29T18:15:20.465Z,51.62
2023-06-29T18:17:48.380Z,54.45
2023-06-29T18:20:17.854Z,51.54
2023-06-29T18:22:45.638Z,51.47
2023-06-29T18:25:13.493Z,51.19
2023-06-29T18:27:41.344Z,54.87
2023-06-29T18:30:10.379Z,48.91
2023-06-29T18:32:39.396Z,49.75
2023-06-29T18:35:07.715Z,53.23
2023-06-29T18:37:37.630Z,48.65
2023-06-29T18:40:06.162Z,51.34
2023-06-29T18:42:33.920Z,54.20
2023-06-29T18:45:02.062Z,50.78
2023-06-29T18:47:30.099Z,50.66
2023-06-29T18:49:58.660Z,53.64
2023-06-29T18:52:27.283Z,53.01
2023-06-29T18:54:58.157Z,48.24
2023-06-29T18:57:25.843Z,51.67
2023-06-29T18:59:53.891Z,50.21
2023-06-29T19:02:21.635Z,50.41
2023-06-29T19:04:49.549Z,56.64
2023-06-29T19:07:17.828Z,56.09
2023-06-29T19:09:45.787Z,48.80
2023-06-29T19:12:15.086Z,49.30
2023-06-29T19:14:43.392Z,54.76
2023-06-29T19:17:11.185Z,53.04
2023-06-29T19:19:39.300Z,50.45
2023-06-29T19:22:08.483Z,51.91
2023-06-29T19:24:36.250Z,58.04
2023-06-29T19:27:06.669Z,55.93
2023-06-29T19:29:36.835Z,54.86
2023-06-29T19:32:06.357Z,57.30
2023-06-29T19:34:35.619Z,57.46
2023-06-29T19:37:04.146Z,55.46
2023-06-29T19:39:32.469Z,52.57
2023-06-29T19:42:00.342Z,55.11
2023-06-29T19:44:28.044Z,55.15
2023-06-29T19:46:57.147Z,55.87
2023-06-29T19:49:24.944Z,55.04
2023-06-29T19:51:58.265Z,53.44
2023-06-29T19:54:26.393Z,57.17
2023-06-29T19:56:54.199Z,56.70
2023-06-29T19:59:21.957Z,55.61
2023-06-29T20:01:49.675Z,56.45
2023-06-29T20:04:19.412Z,51.93
2023-06-29T20:06:47.360Z,56.88
2023-06-29T20:09:15.103Z,59.35
2023-06-29T20:11:42.828Z,58.08
2023-06-29T20:14:10.670Z,60.14
2023-06-29T20:16:38.598Z,61.72
2023-06-29T20:19:06.878Z,59.59
2023-06-29T20:21:36.014Z,62.59
2023-06-29T20:24:04.241Z,62.01
2023-06-29T20:26:33.281Z,61.52
2023-06-29T20:29:01.138Z,64.23
2023-06-29T20:31:29.124Z,59.09
2023-06-29T20:33:56.897Z,60.94
2023-06-29T20:36:24.604Z,59.56
2023-06-29T20:38:53.841Z,56.36
2023-06-29T20:41:21.839Z,65.60
2023-06-29T20:43:50.296Z,63.08
2023-06-29T20:46:19.201Z,59.88
2023-06-29T20:48:47.213Z,70.90
2023-06-29T20:51:18.127Z,65.52
2023-06-29T20:53:46.592Z,64.55
2023-06-29T20:56:15.738Z,65.07
2023-06-29T20:58:43.506Z,66.80
2023-06-29T21:01:11.350Z,64.00
2023-06-29T21:03:44.889Z,67.23
2023-06-29T21:06:13.306Z,73.00
2023-06-29T21:08:41.434Z,72.74
2023-06-29T21:11:09.505Z,71.56
2023-06-29T21:13:38.960Z,83.65
2023-06-29T21:16:07.394Z,83.99
2023-06-29T21:18:35.685Z,86.23
2023-06-29T21:21:03.858Z,94.24
2023-06-29T21:23:31.816Z,90.36
2023-06-29T21:26:00.028Z,88.74
2023-06-29T21:28:28.141Z,82.09
2023-06-29T21:30:57.954Z,80.06
2023-06-29T21:33:27.123Z,86.93
2023-06-29T21:35:55.153Z,87.72
2023-06-29T21:38:25.698Z,83.33
2023-06-29T21:40:55.901Z,80.88
2023-06-29T21:43:23.620Z,93.44
2023-06-29T21:45:51.434Z,87.67
2023-06-29T21:48:20.587Z,88.32
2023-06-29T21:50:48.322Z,89.55
2023-06-29T21:53:16.159Z,91.68
2023-06-29T21:55:46.258Z,95.50
2023-06-29T21:58:14.961Z,90.88
2023-06-29T22:00:42.706Z,90.14
2023-06-29T22:03:10.679Z,94.57
2023-06-29T22:05:39.851Z,91.65
2023-06-29T22:08:10.627Z,91.70
2023-06-29T22:10:38.403Z,87.59
2023-06-29T22:13:06.232Z,89.00
2023-06-29T22:15:34.465Z,75.97
2023-06-29T22:18:04.548Z,91.53
2023-06-29T22:20:32.446Z,86.52
2023-06-29T22:23:01.578Z,87.05
2023-06-29T22:25:30.017Z,88.53
2023-06-29T22:31:26.836Z,76.64
2023-06-29T22:33:54.855Z,85.61
2023-06-29T22:36:23.206Z,78.78
2023-06-29T22:38:52.374Z,77.12
2023-06-29T22:41:20.880Z,78.14
2023-06-29T22:43:49.122Z,79.05
2023-06-29T22:46:16.873Z,77.52
2023-06-29T22:48:45.144Z,78.37
2023-06-29T22:51:13.180Z,81.85
2023-06-29T22:53:40.995Z,82.55
2023-06-29T22:56:10.122Z,86.44
2023-06-29T22:58:39.129Z,88.82
2023-06-29T23:01:06.857Z,90.70
2023-06-29T23:03:34.708Z,83.82
2023-06-29T23:06:02.596Z,82.60
2023-06-29T23:08:30.607Z,84.36
2023-06-29T23:10:58.299Z,79.41
2023-06-29T23:13:27.814Z,80.84
2023-06-29T23:15:55.765Z,88.08
2023-06-29T23:18:23.521Z,85.75
2023-06-29T23:20:51.246Z,86.32
2023-06-29T23:23:18.995Z,88.35
2023-06-29T23:25:46.896Z,90.50
2023-06-29T23:28:18.565Z,91.02
2023-06-29T23:31:09.283Z,85.99
2023-06-29T23:33:37.067Z,86.49
2023-06-29T23:36:05.204Z,83.21
2023-06-29T23:38:32.958Z,89.30
2023-06-29T23:41:00.971Z,87.26
2023-06-29T23:43:28.922Z,96.03
2023-06-29T23:45:58.140Z,88.47
2023-06-29T23:48:25.891Z,93.31
2023-06-29T23:50:53.823Z,95.16
2023-06-29T23:53:21.533Z,90.82
2023-06-29T23:55:49.293Z,90.17
2023-06-29T23:58:17.262Z,85.52
